sensor_id;sensor_type;location;lat;lon;timestamp;temperature;humidity
5779;DHT22;2916;49.798;10.022;2023-03-16T00:00:05;0.10;99.90
5779;DHT22;2916;49.798;10.022;2023-03-16T00:02:34;0.00;99.90
5779;DHT22;2916;49.798;10.022;2023-03-16T00:05:01;0.00;99.90
5779;DHT22;2916;49.798;10.022;2023-03-16T00:07:28;0.00;99.90
5779;DHT22;2916;49.798;10.022;2023-03-16T00:09:56;0.00;99.90
5779;DHT22;2916;49.798;10.022;2023-03-16T00:12:23;-0.10;99.90
5779;DHT22;2916;49.798;10.022;2023-03-16T00:14:52;-0.20;99.90
5779;DHT22;2916;49.798;10.022;2023-03-16T00:17:20;-0.20;99.90
5779;DHT22;2916;49.798;10.022;2023-03-16T00:19:48;-0.30;99.90
5779;DHT22;2916;49.798;10.022;2023-03-16T00:22:20;-0.30;99.90
5779;DHT22;2916;49.798;10.022;2023-03-16T00:24:48;-0.20;99.90
5779;DHT22;2916;49.798;10.022;2023-03-16T00:27:17;-0.20;99.90
5779;DHT22;2916;49.798;10.022;2023-03-16T00:29:45;-0.30;99.90
5779;DHT22;2916;49.798;10.022;2023-03-16T00:32:16;-0.20;99.90
5779;DHT22;2916;49.798;10.022;2023-03-16T00:34:45;-0.20;99.90
5779;DHT22;2916;49.798;10.022;2023-03-16T00:37:15;-0.20;99.90
5779;DHT22;2916;49.798;10.022;2023-03-16T00:39:44;-0.10;99.90
5779;DHT22;2916;49.798;10.022;2023-03-16T00:42:14;-0.20;99.90
5779;DHT22;2916;49.798;10.022;2023-03-16T00:52:06;-0.20;99.90
5779;DHT22;2916;49.798;10.022;2023-03-16T00:54:34;-0.20;99.90
5779;DHT22;2916;49.798;10.022;2023-03-16T00:57:02;-0.20;99.90
5779;DHT22;2916;49.798;10.022;2023-03-16T00:59:30;-0.20;99.90
5779;DHT22;2916;49.798;10.022;2023-03-16T01:01:57;-0.20;99.90
5779;DHT22;2916;49.798;10.022;2023-03-16T01:04:24;-0.30;99.90
5779;DHT22;2916;49.798;10.022;2023-03-16T01:06:51;-0.30;99.90
5779;DHT22;2916;49.798;10.022;2023-03-16T01:09:20;-0.30;99.90
5779;DHT22;2916;49.798;10.022;2023-03-16T01:11:47;-0.30;99.90
5779;DHT22;2916;49.798;10.022;2023-03-16T01:14:18;-0.30;99.90
5779;DHT22;2916;49.798;10.022;2023-03-16T01:16:45;-0.30;99.90
5779;DHT22;2916;49.798;10.022;2023-03-16T01:19:13;-0.30;99.90
5779;DHT22;2916;49.798;10.022;2023-03-16T01:21:41;-0.30;99.90
5779;DHT22;2916;49.798;10.022;2023-03-16T01:24:08;-0.30;99.90
5779;DHT22;2916;49.798;10.022;2023-03-16T01:26:37;-0.30;99.90
5779;DHT22;2916;49.798;10.022;2023-03-16T01:29:04;-0.20;99.90
5779;DHT22;2916;49.798;10.022;2023-03-16T01:31:32;-0.20;99.90
5779;DHT22;2916;49.798;10.022;2023-03-16T01:33:59;-0.20;99.90
5779;DHT22;2916;49.798;10.022;2023-03-16T01:36:29;-0.10;99.90
5779;DHT22;2916;49.798;10.022;2023-03-16T01:38:57;-0.20;99.90
5779;DHT22;2916;49.798;10.022;2023-03-16T01:41:25;-0.10;99.90
5779;DHT22;2916;49.798;10.022;2023-03-16T01:43:54;-0.10;99.90
5779;DHT22;2916;49.798;10.022;2023-03-16T01:46:24;-0.10;99.90
5779;DHT22;2916;49.798;10.022;2023-03-16T01:49:06;-0.10;99.90
5779;DHT22;2916;49.798;10.022;2023-03-16T01:51:39;-0.10;99.90
5779;DHT22;2916;49.798;10.022;2023-03-16T01:54:13;-0.10;99.90
5779;DHT22;2916;49.798;10.022;2023-03-16T01:56:51;-0.20;99.90
5779;DHT22;2916;49.798;10.022;2023-03-16T01:59:29;-0.20;99.90
5779;DHT22;2916;49.798;10.022;2023-03-16T02:01:59;-0.20;99.90
5779;DHT22;2916;49.798;10.022;2023-03-16T02:04:40;-0.30;99.90
5779;DHT22;2916;49.798;10.022;2023-03-16T02:07:12;-0.30;99.90
5779;DHT22;2916;49.798;10.022;2023-03-16T02:09:44;-0.20;99.90
5779;DHT22;2916;49.798;10.022;2023-03-16T02:12:15;-0.20;99.90
5779;DHT22;2916;49.798;10.022;2023-03-16T02:14:46;-0.20;99.90
5779;DHT22;2916;49.798;10.022;2023-03-16T02:17:17;-0.20;99.90
5779;DHT22;2916;49.798;10.022;2023-03-16T02:19:56;-0.20;99.90
5779;DHT22;2916;49.798;10.022;2023-03-16T02:22:33;-0.20;99.90
5779;DHT22;2916;49.798;10.022;2023-03-16T02:25:01;-0.20;99.90
5779;DHT22;2916;49.798;10.022;2023-03-16T02:27:37;-0.30;99.90
5779;DHT22;2916;49.798;10.022;2023-03-16T02:30:12;-0.30;99.90
5779;DHT22;2916;49.798;10.022;2023-03-16T02:32:41;-0.30;99.90
5779;DHT22;2916;49.798;10.022;2023-03-16T02:35:12;-0.30;99.90
5779;DHT22;2916;49.798;10.022;2023-03-16T02:37:39;-0.40;99.90
5779;DHT22;2916;49.798;10.022;2023-03-16T02:40:20;-0.40;99.90
5779;DHT22;2916;49.798;10.022;2023-03-16T02:42:53;-0.40;99.90
5779;DHT22;2916;49.798;10.022;2023-03-16T02:45:31;-0.40;99.90
5779;DHT22;2916;49.798;10.022;2023-03-16T02:48:06;-0.50;99.90
5779;DHT22;2916;49.798;10.022;2023-03-16T02:50:46;-0.50;99.90
5779;DHT22;2916;49.798;10.022;2023-03-16T02:53:17;-0.50;99.90
5779;DHT22;2916;49.798;10.022;2023-03-16T02:55:45;-0.50;99.90
5779;DHT22;2916;49.798;10.022;2023-03-16T02:58:14;-0.40;99.90
5779;DHT22;2916;49.798;10.022;2023-03-16T03:00:43;-0.40;99.90
5779;DHT22;2916;49.798;10.022;2023-03-16T03:03:11;-0.40;99.90
5779;DHT22;2916;49.798;10.022;2023-03-16T03:05:39;-0.40;99.90
5779;DHT22;2916;49.798;10.022;2023-03-16T03:08:06;-0.40;99.90
5779;DHT22;2916;49.798;10.022;2023-03-16T03:10:34;-0.30;99.90
5779;DHT22;2916;49.798;10.022;2023-03-16T03:13:01;-0.40;99.90
5779;DHT22;2916;49.798;10.022;2023-03-16T03:15:28;-0.60;99.90
5779;DHT22;2916;49.798;10.022;2023-03-16T03:17:57;-0.60;99.90
5779;DHT22;2916;49.798;10.022;2023-03-16T03:20:24;-0.70;99.90
5779;DHT22;2916;49.798;10.022;2023-03-16T03:22:51;-0.70;99.90
5779;DHT22;2916;49.798;10.022;2023-03-16T03:25:20;-0.60;99.90
5779;DHT22;2916;49.798;10.022;2023-03-16T03:27:49;-0.60;99.90
5779;DHT22;2916;49.798;10.022;2023-03-16T03:30:20;-0.60;99.90
5779;DHT22;2916;49.798;10.022;2023-03-16T03:32:50;-0.70;99.90
5779;DHT22;2916;49.798;10.022;2023-03-16T03:35:20;-0.70;99.90
5779;DHT22;2916;49.798;10.022;2023-03-16T03:37:48;-0.80;99.90
5779;DHT22;2916;49.798;10.022;2023-03-16T03:40:17;-0.80;99.90
5779;DHT22;2916;49.798;10.022;2023-03-16T03:42:46;-0.80;99.90
5779;DHT22;2916;49.798;10.022;2023-03-16T03:45:14;-0.90;99.90
5779;DHT22;2916;49.798;10.022;2023-03-16T03:47:42;-0.90;99.90
5779;DHT22;2916;49.798;10.022;2023-03-16T03:50:11;-0.80;99.90
5779;DHT22;2916;49.798;10.022;2023-03-16T03:52:40;-0.80;99.90
5779;DHT22;2916;49.798;10.022;2023-03-16T03:55:08;-0.80;99.90
5779;DHT22;2916;49.798;10.022;2023-03-16T03:57:36;-0.80;99.90
5779;DHT22;2916;49.798;10.022;2023-03-16T04:00:04;-0.90;99.90
5779;DHT22;2916;49.798;10.022;2023-03-16T04:02:36;-0.90;99.90
5779;DHT22;2916;49.798;10.022;2023-03-16T04:05:03;-1.00;99.90
5779;DHT22;2916;49.798;10.022;2023-03-16T04:07:31;-1.00;99.90
5779;DHT22;2916;49.798;10.022;2023-03-16T04:10:00;-1.00;99.90
5779;DHT22;2916;49.798;10.022;2023-03-16T04:12:27;-1.00;99.90
5779;DHT22;2916;49.798;10.022;2023-03-16T04:14:54;-1.10;99.90
5779;DHT22;2916;49.798;10.022;2023-03-16T04:17:22;-1.10;99.90
5779;DHT22;2916;49.798;10.022;2023-03-16T04:19:49;-1.10;99.90
5779;DHT22;2916;49.798;10.022;2023-03-16T04:22:16;-1.10;99.90
5779;DHT22;2916;49.798;10.022;2023-03-16T04:24:44;-1.10;99.90
5779;DHT22;2916;49.798;10.022;2023-03-16T04:27:13;-1.10;99.90
5779;DHT22;2916;49.798;10.022;2023-03-16T04:29:40;-1.20;99.90
5779;DHT22;2916;49.798;10.022;2023-03-16T04:32:08;-1.20;99.90
5779;DHT22;2916;49.798;10.022;2023-03-16T04:34:36;-1.20;99.90
5779;DHT22;2916;49.798;10.022;2023-03-16T04:37:06;-1.20;99.90
5779;DHT22;2916;49.798;10.022;2023-03-16T04:39:33;-1.20;99.90
5779;DHT22;2916;49.798;10.022;2023-03-16T04:42:00;-1.10;99.90
5779;DHT22;2916;49.798;10.022;2023-03-16T04:44:29;-1.20;99.90
5779;DHT22;2916;49.798;10.022;2023-03-16T04:46:56;-1.20;99.90
5779;DHT22;2916;49.798;10.022;2023-03-16T04:49:24;-1.20;99.90
5779;DHT22;2916;49.798;10.022;2023-03-16T04:51:51;-1.30;99.90
5779;DHT22;2916;49.798;10.022;2023-03-16T04:54:18;-1.30;99.90
5779;DHT22;2916;49.798;10.022;2023-03-16T04:56:45;-1.40;99.90
5779;DHT22;2916;49.798;10.022;2023-03-16T04:59:12;-1.40;99.90
5779;DHT22;2916;49.798;10.022;2023-03-16T05:01:41;-1.40;99.90
5779;DHT22;2916;49.798;10.022;2023-03-16T05:04:08;-1.50;99.90
5779;DHT22;2916;49.798;10.022;2023-03-16T05:06:36;-1.50;99.90
5779;DHT22;2916;49.798;10.022;2023-03-16T05:09:04;-1.50;99.90
5779;DHT22;2916;49.798;10.022;2023-03-16T05:11:33;-1.50;99.90
5779;DHT22;2916;49.798;10.022;2023-03-16T05:14:00;-1.50;99.90
5779;DHT22;2916;49.798;10.022;2023-03-16T05:16:28;-1.70;99.90
5779;DHT22;2916;49.798;10.022;2023-03-16T05:18:58;-1.80;99.90
5779;DHT22;2916;49.798;10.022;2023-03-16T05:21:26;-1.80;99.90
5779;DHT22;2916;49.798;10.022;2023-03-16T05:23:56;-1.80;99.90
5779;DHT22;2916;49.798;10.022;2023-03-16T05:26:23;-1.70;99.90
5779;DHT22;2916;49.798;10.022;2023-03-16T05:28:51;-1.60;99.90
5779;DHT22;2916;49.798;10.022;2023-03-16T05:31:18;-1.70;99.90
5779;DHT22;2916;49.798;10.022;2023-03-16T05:33:45;-1.70;99.90
5779;DHT22;2916;49.798;10.022;2023-03-16T05:36:14;-1.70;99.90
5779;DHT22;2916;49.798;10.022;2023-03-16T05:38:42;-1.90;99.90
5779;DHT22;2916;49.798;10.022;2023-03-16T05:41:10;-1.90;99.90
5779;DHT22;2916;49.798;10.022;2023-03-16T05:43:39;-1.80;99.90
5779;DHT22;2916;49.798;10.022;2023-03-16T05:46:06;-1.70;99.90
5779;DHT22;2916;49.798;10.022;2023-03-16T05:48:33;-1.70;99.90
5779;DHT22;2916;49.798;10.022;2023-03-16T05:51:01;-1.70;99.90
5779;DHT22;2916;49.798;10.022;2023-03-16T05:53:31;-1.60;99.90
5779;DHT22;2916;49.798;10.022;2023-03-16T05:56:00;-1.60;99.90
5779;DHT22;2916;49.798;10.022;2023-03-16T05:58:27;-1.60;99.90
5779;DHT22;2916;49.798;10.022;2023-03-16T06:00:54;-1.60;99.90
5779;DHT22;2916;49.798;10.022;2023-03-16T06:03:25;-1.60;99.90
5779;DHT22;2916;49.798;10.022;2023-03-16T06:05:53;-1.70;99.90
5779;DHT22;2916;49.798;10.022;2023-03-16T06:08:20;-1.70;99.90
5779;DHT22;2916;49.798;10.022;2023-03-16T06:10:48;-1.70;99.90
5779;DHT22;2916;49.798;10.022;2023-03-16T06:13:15;-1.60;99.90
5779;DHT22;2916;49.798;10.022;2023-03-16T06:15:43;-1.60;99.90
5779;DHT22;2916;49.798;10.022;2023-03-16T06:18:10;-1.50;99.90
5779;DHT22;2916;49.798;10.022;2023-03-16T06:20:37;-1.60;99.90
5779;DHT22;2916;49.798;10.022;2023-03-16T06:23:04;-1.60;99.90
5779;DHT22;2916;49.798;10.022;2023-03-16T06:25:31;-1.70;99.90
5779;DHT22;2916;49.798;10.022;2023-03-16T06:28:00;-1.80;99.90
5779;DHT22;2916;49.798;10.022;2023-03-16T06:30:27;-1.80;99.90
5779;DHT22;2916;49.798;10.022;2023-03-16T06:32:54;-1.80;99.90
5779;DHT22;2916;49.798;10.022;2023-03-16T06:35:21;-1.80;99.90
5779;DHT22;2916;49.798;10.022;2023-03-16T06:37:48;-1.80;99.90
5779;DHT22;2916;49.798;10.022;2023-03-16T06:40:16;-1.70;99.90
5779;DHT22;2916;49.798;10.022;2023-03-16T06:42:43;-1.60;99.90
5779;DHT22;2916;49.798;10.022;2023-03-16T06:45:12;-1.50;99.90
5779;DHT22;2916;49.798;10.022;2023-03-16T06:47:41;-1.40;99.90
5779;DHT22;2916;49.798;10.022;2023-03-16T06:50:09;-1.30;99.90
5779;DHT22;2916;49.798;10.022;2023-03-16T06:52:37;-1.20;99.90
5779;DHT22;2916;49.798;10.022;2023-03-16T06:55:05;-1.20;99.90
5779;DHT22;2916;49.798;10.022;2023-03-16T06:57:33;-1.20;99.90
5779;DHT22;2916;49.798;10.022;2023-03-16T07:00:01;-1.00;99.90
5779;DHT22;2916;49.798;10.022;2023-03-16T07:02:30;-0.90;99.90
5779;DHT22;2916;49.798;10.022;2023-03-16T07:05:00;-0.70;99.90
5779;DHT22;2916;49.798;10.022;2023-03-16T07:07:27;-0.40;99.90
5779;DHT22;2916;49.798;10.022;2023-03-16T07:09:54;-0.20;99.90
5779;DHT22;2916;49.798;10.022;2023-03-16T07:12:22;-0.20;99.90
5779;DHT22;2916;49.798;10.022;2023-03-16T07:14:49;-0.10;99.90
5779;DHT22;2916;49.798;10.022;2023-03-16T07:17:16;0.20;99.90
5779;DHT22;2916;49.798;10.022;2023-03-16T07:19:45;0.50;99.90
5779;DHT22;2916;49.798;10.022;2023-03-16T07:22:12;0.50;99.90
5779;DHT22;2916;49.798;10.022;2023-03-16T07:24:39;0.90;99.90
5779;DHT22;2916;49.798;10.022;2023-03-16T07:27:08;1.30;99.90
5779;DHT22;2916;49.798;10.022;2023-03-16T07:29:36;1.30;99.90
5779;DHT22;2916;49.798;10.022;2023-03-16T07:32:03;1.60;99.90
5779;DHT22;2916;49.798;10.022;2023-03-16T07:34:31;1.50;99.90
5779;DHT22;2916;49.798;10.022;2023-03-16T07:36:59;1.60;99.90
5779;DHT22;2916;49.798;10.022;2023-03-16T07:39:27;1.70;99.90
5779;DHT22;2916;49.798;10.022;2023-03-16T07:41:54;2.00;99.90
5779;DHT22;2916;49.798;10.022;2023-03-16T07:44:21;2.10;99.90
5779;DHT22;2916;49.798;10.022;2023-03-16T07:46:48;2.40;99.90
5779;DHT22;2916;49.798;10.022;2023-03-16T07:49:16;2.60;99.90
5779;DHT22;2916;49.798;10.022;2023-03-16T07:51:43;2.40;99.90
5779;DHT22;2916;49.798;10.022;2023-03-16T07:54:11;2.40;99.90
5779;DHT22;2916;49.798;10.022;2023-03-16T07:56:39;2.40;99.90
5779;DHT22;2916;49.798;10.022;2023-03-16T07:59:06;3.20;99.90
5779;DHT22;2916;49.798;10.022;2023-03-16T08:01:34;3.10;99.90
5779;DHT22;2916;49.798;10.022;2023-03-16T08:04:02;3.40;99.90
5779;DHT22;2916;49.798;10.022;2023-03-16T08:06:29;3.70;99.90
5779;DHT22;2916;49.798;10.022;2023-03-16T08:08:56;3.40;99.90
5779;DHT22;2916;49.798;10.022;2023-03-16T08:11:25;3.40;99.90
5779;DHT22;2916;49.798;10.022;2023-03-16T08:13:52;3.50;99.90
5779;DHT22;2916;49.798;10.022;2023-03-16T08:16:21;3.30;99.90
5779;DHT22;2916;49.798;10.022;2023-03-16T08:18:49;3.80;99.90
5779;DHT22;2916;49.798;10.022;2023-03-16T08:21:18;3.70;99.90
5779;DHT22;2916;49.798;10.022;2023-03-16T08:23:46;3.60;99.90
5779;DHT22;2916;49.798;10.022;2023-03-16T08:26:15;3.90;99.90
5779;DHT22;2916;49.798;10.022;2023-03-16T08:28:46;3.90;99.90
5779;DHT22;2916;49.798;10.022;2023-03-16T08:31:16;3.60;99.90
5779;DHT22;2916;49.798;10.022;2023-03-16T08:33:46;3.70;99.90
5779;DHT22;2916;49.798;10.022;2023-03-16T08:36:15;3.80;99.90
5779;DHT22;2916;49.798;10.022;2023-03-16T08:38:43;4.10;99.90
5779;DHT22;2916;49.798;10.022;2023-03-16T08:41:11;3.70;99.90
5779;DHT22;2916;49.798;10.022;2023-03-16T08:43:41;4.00;99.90
5779;DHT22;2916;49.798;10.022;2023-03-16T08:46:10;4.40;99.90
5779;DHT22;2916;49.798;10.022;2023-03-16T08:48:38;4.10;99.90
5779;DHT22;2916;49.798;10.022;2023-03-16T08:51:06;4.80;99.90
5779;DHT22;2916;49.798;10.022;2023-03-16T08:53:35;4.80;99.90
5779;DHT22;2916;49.798;10.022;2023-03-16T08:56:03;4.90;99.90
5779;DHT22;2916;49.798;10.022;2023-03-16T08:58:31;5.10;99.90
5779;DHT22;2916;49.798;10.022;2023-03-16T09:00:59;5.00;99.90
5779;DHT22;2916;49.798;10.022;2023-03-16T09:03:28;5.40;99.90
5779;DHT22;2916;49.798;10.022;2023-03-16T09:06:00;5.10;99.90
5779;DHT22;2916;49.798;10.022;2023-03-16T09:08:29;5.00;99.90
5779;DHT22;2916;49.798;10.022;2023-03-16T09:11:00;5.30;99.90
5779;DHT22;2916;49.798;10.022;2023-03-16T09:13:29;4.90;99.90
5779;DHT22;2916;49.798;10.022;2023-03-16T09:15:56;5.00;99.90
5779;DHT22;2916;49.798;10.022;2023-03-16T09:18:24;4.80;99.90
5779;DHT22;2916;49.798;10.022;2023-03-16T09:20:56;5.30;99.90
5779;DHT22;2916;49.798;10.022;2023-03-16T09:23:28;5.40;99.90
5779;DHT22;2916;49.798;10.022;2023-03-16T09:25:58;5.30;99.90
5779;DHT22;2916;49.798;10.022;2023-03-16T09:28:27;5.20;99.90
5779;DHT22;2916;49.798;10.022;2023-03-16T09:30:56;5.40;99.90
5779;DHT22;2916;49.798;10.022;2023-03-16T09:33:25;5.50;99.90
5779;DHT22;2916;49.798;10.022;2023-03-16T09:35:55;5.60;99.90
5779;DHT22;2916;49.798;10.022;2023-03-16T09:38:23;5.50;99.90
5779;DHT22;2916;49.798;10.022;2023-03-16T09:40:56;6.10;99.90
5779;DHT22;2916;49.798;10.022;2023-03-16T09:43:41;6.20;99.90
5779;DHT22;2916;49.798;10.022;2023-03-16T09:46:26;6.20;99.90
5779;DHT22;2916;49.798;10.022;2023-03-16T09:48:55;6.40;99.90
5779;DHT22;2916;49.798;10.022;2023-03-16T09:51:37;6.30;99.90
5779;DHT22;2916;49.798;10.022;2023-03-16T09:54:18;6.40;99.90
5779;DHT22;2916;49.798;10.022;2023-03-16T10:00:16;6.50;99.90
5779;DHT22;2916;49.798;10.022;2023-03-16T10:06:04;6.80;99.90
5779;DHT22;2916;49.798;10.022;2023-03-16T10:08:39;6.80;99.90
5779;DHT22;2916;49.798;10.022;2023-03-16T10:11:23;7.20;99.90
5779;DHT22;2916;49.798;10.022;2023-03-16T10:14:00;7.20;99.90
5779;DHT22;2916;49.798;10.022;2023-03-16T10:16:37;7.10;97.70
5779;DHT22;2916;49.798;10.022;2023-03-16T10:19:12;7.10;95.50
5779;DHT22;2916;49.798;10.022;2023-03-16T10:21:46;7.10;97.40
5779;DHT22;2916;49.798;10.022;2023-03-16T10:24:23;7.30;93.50
5779;DHT22;2916;49.798;10.022;2023-03-16T10:27:02;7.30;68.30
5779;DHT22;2916;49.798;10.022;2023-03-16T10:29:34;7.30;55.50
5779;DHT22;2916;49.798;10.022;2023-03-16T10:32:12;7.30;47.40
5779;DHT22;2916;49.798;10.022;2023-03-16T10:34:46;7.40;48.10
5779;DHT22;2916;49.798;10.022;2023-03-16T10:37:19;7.70;42.40
5779;DHT22;2916;49.798;10.022;2023-03-16T10:39:48;7.50;35.70
5779;DHT22;2916;49.798;10.022;2023-03-16T10:42:17;7.50;43.60
5779;DHT22;2916;49.798;10.022;2023-03-16T10:44:47;7.60;38.50
5779;DHT22;2916;49.798;10.022;2023-03-16T10:47:20;7.50;22.00
5779;DHT22;2916;49.798;10.022;2023-03-16T10:49:50;7.90;17.20
5779;DHT22;2916;49.798;10.022;2023-03-16T10:52:27;7.60;12.30
5779;DHT22;2916;49.798;10.022;2023-03-16T10:55:06;7.80;10.80
5779;DHT22;2916;49.798;10.022;2023-03-16T10:57:40;7.70;8.60
5779;DHT22;2916;49.798;10.022;2023-03-16T11:00:14;7.90;12.30
5779;DHT22;2916;49.798;10.022;2023-03-16T11:02:47;8.10;7.20
5779;DHT22;2916;49.798;10.022;2023-03-16T11:05:25;8.30;3.90
5779;DHT22;2916;49.798;10.022;2023-03-16T11:07:59;8.50;1.00
5779;DHT22;2916;49.798;10.022;2023-03-16T11:10:31;8.30;1.00
5779;DHT22;2916;49.798;10.022;2023-03-16T11:13:02;8.30;1.00
5779;DHT22;2916;49.798;10.022;2023-03-16T11:15:38;8.50;2.20
5779;DHT22;2916;49.798;10.022;2023-03-16T11:18:27;8.60;3.60
5779;DHT22;2916;49.798;10.022;2023-03-16T11:20:59;8.60;1.00
5779;DHT22;2916;49.798;10.022;2023-03-16T11:23:31;8.60;1.00
5779;DHT22;2916;49.798;10.022;2023-03-16T11:26:03;8.60;1.00
5779;DHT22;2916;49.798;10.022;2023-03-16T11:28:43;8.40;1.00
5779;DHT22;2916;49.798;10.022;2023-03-16T11:31:20;8.50;1.00
5779;DHT22;2916;49.798;10.022;2023-03-16T11:33:53;8.50;1.00
5779;DHT22;2916;49.798;10.022;2023-03-16T11:36:37;8.50;1.00
5779;DHT22;2916;49.798;10.022;2023-03-16T11:39:30;8.50;1.00
5779;DHT22;2916;49.798;10.022;2023-03-16T11:42:27;9.10;1.00
5779;DHT22;2916;49.798;10.022;2023-03-16T11:45:07;9.40;1.00
5779;DHT22;2916;49.798;10.022;2023-03-16T11:48:08;9.00;1.00
5779;DHT22;2916;49.798;10.022;2023-03-16T11:51:04;9.30;1.00
5779;DHT22;2916;49.798;10.022;2023-03-16T11:53:48;9.50;1.00
5779;DHT22;2916;49.798;10.022;2023-03-16T11:56:28;9.40;1.00
5779;DHT22;2916;49.798;10.022;2023-03-16T11:59:20;9.10;1.00
5779;DHT22;2916;49.798;10.022;2023-03-16T12:02:04;9.30;1.00
5779;DHT22;2916;49.798;10.022;2023-03-16T12:04:57;9.40;1.00
5779;DHT22;2916;49.798;10.022;2023-03-16T12:07:51;9.20;1.00
5779;DHT22;2916;49.798;10.022;2023-03-16T12:10:31;9.00;1.00
5779;DHT22;2916;49.798;10.022;2023-03-16T12:13:13;9.20;1.00
5779;DHT22;2916;49.798;10.022;2023-03-16T12:15:58;9.40;1.00
5779;DHT22;2916;49.798;10.022;2023-03-16T12:18:37;9.40;1.00
5779;DHT22;2916;49.798;10.022;2023-03-16T12:21:12;9.30;1.00
5779;DHT22;2916;49.798;10.022;2023-03-16T12:23:49;9.30;1.00
5779;DHT22;2916;49.798;10.022;2023-03-16T12:26:20;9.50;1.00
5779;DHT22;2916;49.798;10.022;2023-03-16T12:28:51;9.40;1.00
5779;DHT22;2916;49.798;10.022;2023-03-16T12:31:25;9.80;1.00
5779;DHT22;2916;49.798;10.022;2023-03-16T12:34:12;9.60;1.00
5779;DHT22;2916;49.798;10.022;2023-03-16T12:37:12;9.60;1.00
5779;DHT22;2916;49.798;10.022;2023-03-16T12:39:59;9.60;1.00
5779;DHT22;2916;49.798;10.022;2023-03-16T12:45:48;9.60;1.00
5779;DHT22;2916;49.798;10.022;2023-03-16T12:48:27;9.60;1.00
5779;DHT22;2916;49.798;10.022;2023-03-16T12:50:59;9.80;1.00
5779;DHT22;2916;49.798;10.022;2023-03-16T12:53:41;9.80;1.00
5779;DHT22;2916;49.798;10.022;2023-03-16T12:56:11;9.80;1.00
5779;DHT22;2916;49.798;10.022;2023-03-16T12:58:43;9.80;1.00
5779;DHT22;2916;49.798;10.022;2023-03-16T13:01:14;9.90;1.00
5779;DHT22;2916;49.798;10.022;2023-03-16T13:03:48;9.80;1.00
5779;DHT22;2916;49.798;10.022;2023-03-16T13:06:24;10.00;1.00
5779;DHT22;2916;49.798;10.022;2023-03-16T13:08:58;9.90;1.00
5779;DHT22;2916;49.798;10.022;2023-03-16T13:11:27;10.00;1.00
5779;DHT22;2916;49.798;10.022;2023-03-16T13:14:05;10.00;1.00
5779;DHT22;2916;49.798;10.022;2023-03-16T13:16:36;9.80;1.00
5779;DHT22;2916;49.798;10.022;2023-03-16T13:19:34;9.80;1.00
5779;DHT22;2916;49.798;10.022;2023-03-16T13:22:18;10.00;1.00
5779;DHT22;2916;49.798;10.022;2023-03-16T13:24:53;9.90;1.00
5779;DHT22;2916;49.798;10.022;2023-03-16T13:27:25;9.90;1.00
5779;DHT22;2916;49.798;10.022;2023-03-16T13:29:56;9.90;1.00
5779;DHT22;2916;49.798;10.022;2023-03-16T13:32:26;9.60;1.00
5779;DHT22;2916;49.798;10.022;2023-03-16T13:35:00;9.80;1.00
5779;DHT22;2916;49.798;10.022;2023-03-16T13:37:30;9.90;1.00
5779;DHT22;2916;49.798;10.022;2023-03-16T13:39:59;9.90;1.00
5779;DHT22;2916;49.798;10.022;2023-03-16T13:42:29;10.00;1.00
5779;DHT22;2916;49.798;10.022;2023-03-16T13:45:04;10.00;1.00
5779;DHT22;2916;49.798;10.022;2023-03-16T13:47:41;10.00;1.00
5779;DHT22;2916;49.798;10.022;2023-03-16T13:50:13;10.20;1.00
5779;DHT22;2916;49.798;10.022;2023-03-16T13:52:42;10.10;1.00
5779;DHT22;2916;49.798;10.022;2023-03-16T13:55:28;10.20;1.00
5779;DHT22;2916;49.798;10.022;2023-03-16T13:57:58;10.40;1.00
5779;DHT22;2916;49.798;10.022;2023-03-16T14:00:28;10.50;1.00
5779;DHT22;2916;49.798;10.022;2023-03-16T14:03:07;10.40;1.00
5779;DHT22;2916;49.798;10.022;2023-03-16T14:05:42;10.20;1.00
5779;DHT22;2916;49.798;10.022;2023-03-16T14:08:18;10.20;1.00
5779;DHT22;2916;49.798;10.022;2023-03-16T14:10:48;10.20;1.00
5779;DHT22;2916;49.798;10.022;2023-03-16T14:13:31;10.10;1.00
5779;DHT22;2916;49.798;10.022;2023-03-16T14:16:09;10.10;1.00
5779;DHT22;2916;49.798;10.022;2023-03-16T14:18:40;10.30;1.00
5779;DHT22;2916;49.798;10.022;2023-03-16T14:21:15;10.30;1.00
5779;DHT22;2916;49.798;10.022;2023-03-16T14:23:45;10.30;1.00
5779;DHT22;2916;49.798;10.022;2023-03-16T14:26:15;10.50;1.00
5779;DHT22;2916;49.798;10.022;2023-03-16T14:28:53;10.40;1.00
5779;DHT22;2916;49.798;10.022;2023-03-16T14:31:32;10.20;1.00
5779;DHT22;2916;49.798;10.022;2023-03-16T14:34:04;10.30;1.00
5779;DHT22;2916;49.798;10.022;2023-03-16T14:36:37;10.30;1.00
5779;DHT22;2916;49.798;10.022;2023-03-16T14:39:12;10.30;1.00
5779;DHT22;2916;49.798;10.022;2023-03-16T14:41:41;10.20;1.00
5779;DHT22;2916;49.798;10.022;2023-03-16T14:44:17;10.10;1.00
5779;DHT22;2916;49.798;10.022;2023-03-16T14:46:48;10.00;1.00
5779;DHT22;2916;49.798;10.022;2023-03-16T14:49:20;10.00;1.00
5779;DHT22;2916;49.798;10.022;2023-03-16T14:51:53;9.80;1.00
5779;DHT22;2916;49.798;10.022;2023-03-16T14:54:25;9.80;1.00
5779;DHT22;2916;49.798;10.022;2023-03-16T14:56:57;9.90;1.00
5779;DHT22;2916;49.798;10.022;2023-03-16T14:59:26;10.00;1.00
5779;DHT22;2916;49.798;10.022;2023-03-16T15:01:54;9.90;1.00
5779;DHT22;2916;49.798;10.022;2023-03-16T15:04:26;9.90;1.00
5779;DHT22;2916;49.798;10.022;2023-03-16T15:06:58;9.90;1.00
5779;DHT22;2916;49.798;10.022;2023-03-16T15:09:34;9.90;1.00
5779;DHT22;2916;49.798;10.022;2023-03-16T15:12:11;9.90;1.00
5779;DHT22;2916;49.798;10.022;2023-03-16T15:14:41;9.90;1.00
5779;DHT22;2916;49.798;10.022;2023-03-16T15:17:25;9.90;1.00
5779;DHT22;2916;49.798;10.022;2023-03-16T15:19:52;10.00;1.00
5779;DHT22;2916;49.798;10.022;2023-03-16T15:22:28;9.90;1.00
5779;DHT22;2916;49.798;10.022;2023-03-16T15:24:57;9.90;1.00
5779;DHT22;2916;49.798;10.022;2023-03-16T15:27:29;9.90;1.00
5779;DHT22;2916;49.798;10.022;2023-03-16T15:30:01;9.90;1.00
5779;DHT22;2916;49.798;10.022;2023-03-16T15:32:28;9.80;1.00
5779;DHT22;2916;49.798;10.022;2023-03-16T15:34:55;9.90;1.00
5779;DHT22;2916;49.798;10.022;2023-03-16T15:37:23;9.80;1.00
5779;DHT22;2916;49.798;10.022;2023-03-16T15:39:52;9.80;1.00
5779;DHT22;2916;49.798;10.022;2023-03-16T15:42:19;9.80;1.00
5779;DHT22;2916;49.798;10.022;2023-03-16T15:44:47;9.90;1.00
5779;DHT22;2916;49.798;10.022;2023-03-16T15:47:15;9.90;1.00
5779;DHT22;2916;49.798;10.022;2023-03-16T15:49:42;9.80;1.00
5779;DHT22;2916;49.798;10.022;2023-03-16T15:52:20;9.60;1.00
5779;DHT22;2916;49.798;10.022;2023-03-16T15:54:53;9.60;1.00
5779;DHT22;2916;49.798;10.022;2023-03-16T15:57:21;9.50;1.00
5779;DHT22;2916;49.798;10.022;2023-03-16T15:59:49;9.50;1.00
5779;DHT22;2916;49.798;10.022;2023-03-16T16:02:25;9.40;1.00
5779;DHT22;2916;49.798;10.022;2023-03-16T16:04:56;9.40;1.00
5779;DHT22;2916;49.798;10.022;2023-03-16T16:07:25;9.40;1.00
5779;DHT22;2916;49.798;10.022;2023-03-16T16:09:53;9.30;1.00
5779;DHT22;2916;49.798;10.022;2023-03-16T16:12:20;9.30;1.00
5779;DHT22;2916;49.798;10.022;2023-03-16T16:14:52;9.30;1.00
5779;DHT22;2916;49.798;10.022;2023-03-16T16:17:20;9.30;1.00
5779;DHT22;2916;49.798;10.022;2023-03-16T16:19:51;9.20;1.00
5779;DHT22;2916;49.798;10.022;2023-03-16T16:22:18;9.20;1.00
5779;DHT22;2916;49.798;10.022;2023-03-16T16:24:48;9.20;1.00
5779;DHT22;2916;49.798;10.022;2023-03-16T16:27:15;9.20;1.00
5779;DHT22;2916;49.798;10.022;2023-03-16T16:29:42;9.10;1.00
5779;DHT22;2916;49.798;10.022;2023-03-16T16:32:21;9.20;1.00
5779;DHT22;2916;49.798;10.022;2023-03-16T16:34:49;9.10;1.00
5779;DHT22;2916;49.798;10.022;2023-03-16T16:37:18;9.10;1.00
5779;DHT22;2916;49.798;10.022;2023-03-16T16:39:45;9.00;1.00
5779;DHT22;2916;49.798;10.022;2023-03-16T16:42:15;9.00;1.00